Time;durP1;ratioP1;P1;durP2;ratioP2;P2;SDS_P1;SDS_P2;PMS_P1;PMS_P2;Temp;Humidity;BMP_temperature;BMP_pressure;BME280_temperature;BME280_humidity;BME280_pressure;Samples;Min_cycle;Max_cycle;Signal;HPM_P1;HPM_P2
2022/05/21 00:00:45;;;;;;;3.40;1.10;;;;;;;33.60;24.50;97807.84;5053979;28;20029;-79
2022/05/21 00:03:11;;;;;;;1.20;1.05;;;;;;;33.72;23.79;97789.56;5055431;28;20029;-79
2022/05/21 00:05:39;;;;;;;0.82;0.82;;;;;;;33.26;24.53;97784.75;5047791;28;20060;-80
2022/05/21 00:08:08;;;;;;;3.58;0.70;;;;;;;33.42;24.28;97783.38;5053842;28;20064;-79
2022/05/21 00:10:36;;;;;;;4.93;0.98;;;;;;;33.41;24.42;97771.19;5052910;28;20033;-79
2022/05/21 00:13:02;;;;;;;0.90;0.70;;;;;;;33.64;24.80;97769.31;5054694;28;20037;-79
2022/05/21 00:15:31;;;;;;;4.30;0.80;;;;;;;33.93;24.53;97769.00;5053797;28;20041;-79
2022/05/21 00:17:57;;;;;;;0.77;0.77;;;;;;;33.59;24.61;97775.75;5053410;28;20037;-79
2022/05/21 00:23:30;;;;;;;1.52;0.50;;;;;;;33.74;24.77;97787.00;5036958;28;20087;-79
2022/05/21 00:26:06;;;;;;;2.83;0.40;;;;;;;33.83;25.13;97793.28;5051407;28;20497;-79
2022/05/21 00:28:34;;;;;;;0.40;0.40;;;;;;;33.62;25.63;97794.66;5050501;28;20033;-79
2022/05/21 00:31:01;;;;;;;1.75;0.52;;;;;;;34.05;24.70;97801.97;5051025;28;20159;-79
2022/05/21 00:33:28;;;;;;;2.15;0.40;;;;;;;34.21;24.85;97794.03;5053820;28;20033;-79
2022/05/21 00:35:55;;;;;;;0.52;0.30;;;;;;;34.10;24.77;97771.94;5034454;28;20374;-78
2022/05/21 00:38:22;;;;;;;0.98;0.30;;;;;;;34.07;24.59;97768.03;5048353;28;20029;-79
2022/05/21 00:40:50;;;;;;;0.30;0.30;;;;;;;34.20;24.59;97767.59;5051078;28;20057;-79
2022/05/21 00:43:46;;;;;;;0.60;0.30;;;;;;;34.20;24.36;97763.97;5052920;28;20113;-79
2022/05/21 00:46:21;;;;;;;0.35;0.22;;;;;;;34.34;24.46;97754.44;5045238;28;20514;-79
2022/05/21 00:48:53;;;;;;;2.90;0.60;;;;;;;34.48;23.71;97747.75;5052471;28;20161;-79
2022/05/21 00:51:24;;;;;;;0.50;0.30;;;;;;;34.60;23.53;97737.97;5052528;28;20064;-79
2022/05/21 00:53:53;;;;;;;0.10;0.10;;;;;;;34.78;23.24;97725.28;5052859;28;20029;-79
2022/05/21 00:56:22;;;;;;;0.85;0.38;;;;;;;34.77;23.22;97718.03;5053746;28;20495;-79
2022/05/21 01:01:41;;;;;;;1.13;0.20;;;;;;;34.56;23.59;97728.88;5053058;28;20182;-79
2022/05/21 01:04:08;;;;;;;0.52;0.20;;;;;;;34.69;22.87;97712.84;5053160;28;20388;-79
2022/05/21 01:06:34;;;;;;;0.30;0.30;;;;;;;34.59;23.58;97699.31;5050631;28;20040;-79
2022/05/21 01:09:00;;;;;;;0.20;0.13;;;;;;;34.55;23.25;97699.59;5051317;28;20035;-79
2022/05/21 01:11:27;;;;;;;0.20;0.20;;;;;;;34.56;23.02;97694.66;5052227;28;20040;-79
2022/05/21 01:13:54;;;;;;;3.40;0.30;;;;;;;34.63;22.97;97694.94;5032529;28;20481;-79
2022/05/21 01:16:20;;;;;;;0.20;0.20;;;;;;;34.74;22.89;97692.09;5054098;28;20021;-79
2022/05/21 01:18:46;;;;;;;0.40;0.20;;;;;;;34.58;22.67;97698.56;5036712;28;20037;-79
2022/05/21 01:21:12;;;;;;;0.20;0.20;;;;;;;34.49;22.83;97686.59;5049180;28;20029;-79
2022/05/21 01:23:39;;;;;;;0.77;0.22;;;;;;;34.45;23.16;97688.91;5048223;28;20037;-79
2022/05/21 01:26:10;;;;;;;0.20;0.20;;;;;;;34.55;22.88;97676.78;5045211;28;20037;-79
2022/05/21 01:28:38;;;;;;;0.20;0.20;;;;;;;34.25;22.64;97664.22;5050458;28;20068;-79
2022/05/21 01:31:05;;;;;;;0.22;0.20;;;;;;;34.24;23.14;97665.50;5050408;28;20033;-79
2022/05/21 01:33:33;;;;;;;0.32;0.10;;;;;;;34.09;22.95;97664.97;5048771;28;20477;-79
2022/05/21 01:36:01;;;;;;;2.33;0.20;;;;;;;34.16;23.03;97672.22;5050035;28;20484;-79
2022/05/21 01:38:29;;;;;;;0.20;0.20;;;;;;;34.36;22.49;97672.03;5050995;28;20063;-79
2022/05/21 01:40:57;;;;;;;0.35;0.10;;;;;;;34.60;22.61;97675.22;5045063;28;20041;-79
2022/05/21 01:46:09;;;;;;;0.65;0.10;;;;;;;34.95;21.63;97663.31;5050485;28;20056;-79
2022/05/21 01:48:35;;;;;;;0.20;0.20;;;;;;;34.99;21.86;97675.25;5047727;28;20024;-79
2022/05/21 01:51:01;;;;;;;1.83;0.20;;;;;;;34.94;21.97;97667.47;5049817;28;20028;-79
2022/05/21 01:53:28;;;;;;;1.08;0.55;;;;;;;34.43;21.72;97671.53;5050870;28;20505;-78
2022/05/21 01:55:57;;;;;;;0.98;0.10;;;;;;;34.49;22.15;97672.31;5047675;28;20099;-79
2022/05/21 01:58:23;;;;;;;0.28;0.13;;;;;;;34.65;22.02;97672.38;5047332;28;20110;-79
2022/05/21 02:00:49;;;;;;;0.20;0.20;;;;;;;34.75;22.00;97673.69;5048862;28;20041;-79
2022/05/21 02:03:15;;;;;;;0.75;0.20;;;;;;;34.77;22.14;97673.19;5051569;28;20181;-78
2022/05/21 02:05:44;;;;;;;0.22;0.15;;;;;;;34.93;22.08;97669.56;5032895;28;20033;-79
2022/05/21 02:08:12;;;;;;;0.50;0.10;;;;;;;35.18;21.43;97670.59;5049177;28;20473;-78
2022/05/21 02:10:39;;;;;;;0.10;0.10;;;;;;;35.16;21.59;97673.19;5031356;28;20552;-78
2022/05/21 02:13:05;;;;;;;2.22;0.20;;;;;;;35.12;21.56;97681.25;5045400;28;20116;-79
2022/05/21 02:15:32;;;;;;;0.10;0.10;;;;;;;35.12;21.52;97684.09;5046706;28;20040;-78
2022/05/21 02:17:58;;;;;;;0.20;0.10;;;;;;;34.91;21.51;97686.41;5048425;28;20028;-78
2022/05/21 02:20:24;;;;;;;0.47;0.10;;;;;;;34.80;21.90;97677.81;5045610;28;20064;-78
2022/05/21 02:22:50;;;;;;;0.20;0.17;;;;;;;34.71;21.95;97681.72;5044815;28;20036;-78
2022/05/21 02:25:16;;;;;;;0.70;0.25;;;;;;;34.75;21.93;97684.34;5048156;28;20033;-79
2022/05/21 02:27:43;;;;;;;0.77;0.55;;;;;;;34.72;21.81;97679.66;5047668;28;20025;-78
2022/05/21 02:30:10;;;;;;;0.63;0.20;;;;;;;34.58;21.83;97681.44;5048238;28;20127;-79
2022/05/21 02:32:36;;;;;;;0.93;0.22;;;;;;;34.48;22.03;97679.31;5043966;28;20040;-78
2022/05/21 02:35:02;;;;;;;0.20;0.20;;;;;;;34.60;22.16;97686.63;5042298;28;20035;-79
2022/05/21 02:40:13;;;;;;;0.30;0.20;;;;;;;34.54;22.01;97677.28;5043675;28;20440;-79
2022/05/21 02:42:48;;;;;;;1.23;0.32;;;;;;;34.65;22.08;97675.25;5045727;28;20380;-79
2022/05/21 02:45:17;;;;;;;0.25;0.20;;;;;;;34.91;21.57;97672.16;5044161;28;20029;-79
2022/05/21 02:47:43;;;;;;;0.10;0.10;;;;;;;34.89;21.52;97671.91;5045778;28;20071;-79
2022/05/21 02:50:11;;;;;;;0.60;0.20;;;;;;;34.95;21.19;97669.81;5028076;28;20551;-79
2022/05/21 02:52:37;;;;;;;0.40;0.20;;;;;;;35.02;21.24;97671.38;5028469;28;20106;-79
2022/05/21 02:55:05;;;;;;;0.30;0.30;;;;;;;35.18;21.23;97662.81;5030503;28;20037;-79
2022/05/21 02:57:31;;;;;;;0.75;0.40;;;;;;;35.16;21.45;97673.19;5046220;28;20404;-78
2022/05/21 03:00:05;;;;;;;0.20;0.10;;;;;;;34.91;21.53;97671.38;5046098;28;20039;-79
2022/05/21 03:02:31;;;;;;;0.52;0.10;;;;;;;34.93;21.70;97675.25;5045632;28;20021;-79
2022/05/21 03:04:57;;;;;;;3.45;0.20;;;;;;;34.99;21.40;97680.94;5050994;28;20048;-79
2022/05/21 03:07:23;;;;;;;0.88;0.13;;;;;;;35.01;21.52;97672.66;5048248;28;20033;-79
2022/05/21 03:12:34;;;;;;;0.70;0.20;;;;;;;34.91;21.59;97682.78;5047451;28;20040;-79
2022/05/21 03:15:00;;;;;;;0.20;0.20;;;;;;;34.81;21.73;97682.25;5049533;28;20033;-79
2022/05/21 03:17:27;;;;;;;0.75;0.17;;;;;;;34.87;21.93;97682.25;5053195;28;20456;-79
2022/05/21 03:19:53;;;;;;;0.00;0.00;;;;;;;34.95;22.00;97680.44;5051624;28;20021;-79
2022/05/21 03:22:20;;;;;;;0.08;0.08;;;;;;;35.11;21.59;97677.63;5045701;28;21980;-79
2022/05/21 03:24:46;;;;;;;0.22;0.15;;;;;;;35.29;21.49;97682.00;5048805;28;20033;-79
2022/05/21 03:27:12;;;;;;;0.65;0.30;;;;;;;35.17;22.00;97681.22;5033312;28;20078;-79
2022/05/21 03:29:38;;;;;;;1.20;0.10;;;;;;;35.12;22.04;97684.09;5040900;28;20079;-79
2022/05/21 03:32:07;;;;;;;0.15;0.15;;;;;;;34.99;22.00;97681.72;5049718;28;20027;-79
2022/05/21 03:34:34;;;;;;;0.47;0.30;;;;;;;35.06;21.84;97684.09;5048528;28;20025;-79
2022/05/21 03:37:00;;;;;;;0.40;0.10;;;;;;;35.07;21.74;97691.38;5049239;28;20033;-79
2022/05/21 03:39:28;;;;;;;0.40;0.10;;;;;;;35.23;21.98;97690.59;5050003;28;20120;-79
2022/05/21 03:41:54;;;;;;;0.38;0.10;;;;;;;35.36;21.88;97687.97;5048778;28;20045;-79
2022/05/21 03:44:20;;;;;;;0.10;0.10;;;;;;;35.57;21.28;97694.19;5049185;28;20036;-79
2022/05/21 03:46:46;;;;;;;0.20;0.10;;;;;;;35.72;21.38;97691.81;5048724;28;20130;-79
2022/05/21 03:49:13;;;;;;;0.10;0.00;;;;;;;35.82;21.59;97689.47;5050721;28;20033;-79
2022/05/21 03:51:39;;;;;;;0.30;0.20;;;;;;;35.97;21.07;97692.78;5049022;28;20389;-79
2022/05/21 03:54:05;;;;;;;0.77;0.10;;;;;;;35.99;21.36;97696.69;5045067;28;20048;-79
2022/05/21 03:56:31;;;;;;;0.17;0.17;;;;;;;35.80;21.63;97697.78;5049703;28;20036;-79
2022/05/21 03:58:57;;;;;;;0.05;0.05;;;;;;;35.60;22.21;97700.94;5050346;28;20033;-79
2022/05/21 04:01:23;;;;;;;0.63;0.10;;;;;;;35.37;22.35;97695.25;5049803;28;20029;-79
2022/05/21 04:03:50;;;;;;;0.13;0.10;;;;;;;35.19;22.61;97700.72;5046887;28;20045;-79
2022/05/21 04:06:17;;;;;;;1.05;0.20;;;;;;;35.26;22.44;97700.97;5046167;28;20079;-79
2022/05/21 04:08:43;;;;;;;0.82;0.20;;;;;;;35.22;22.67;97702.50;5048124;28;20037;-79
2022/05/21 04:11:09;;;;;;;0.10;0.10;;;;;;;35.08;22.36;97701.47;5045117;28;20484;-79
2022/05/21 04:13:35;;;;;;;0.90;0.10;;;;;;;35.17;22.66;97701.22;5045325;28;20037;-80
2022/05/21 04:16:01;;;;;;;0.20;0.20;;;;;;;35.09;23.45;97693.69;5049971;28;20083;-80
2022/05/21 04:18:27;;;;;;;0.38;0.00;;;;;;;35.21;23.16;97693.19;5049089;28;20033;-79
2022/05/21 04:20:53;;;;;;;1.20;0.20;;;;;;;35.38;22.83;97698.88;5047335;28;20041;-79
2022/05/21 04:23:19;;;;;;;0.65;0.20;;;;;;;35.25;23.20;97693.69;5045638;28;20044;-79
2022/05/21 04:25:47;;;;;;;0.30;0.20;;;;;;;34.97;23.45;97694.97;5049027;28;20029;-79
2022/05/21 04:28:13;;;;;;;0.63;0.40;;;;;;;35.02;23.73;97706.41;5047140;28;20056;-79
2022/05/21 04:30:39;;;;;;;0.47;0.10;;;;;;;35.27;22.82;97701.72;5049229;28;20040;-79
2022/05/21 04:33:06;;;;;;;0.32;0.30;;;;;;;35.35;22.82;97705.63;5045886;28;20029;-79
2022/05/21 04:38:17;;;;;;;0.85;0.20;;;;;;;35.37;23.19;97697.31;5046023;28;20040;-79
2022/05/21 04:40:44;;;;;;;0.32;0.20;;;;;;;35.44;23.06;97708.22;5055089;28;20055;-79
2022/05/21 04:43:10;;;;;;;1.13;0.22;;;;;;;35.19;23.03;97709.28;5055832;28;20112;-80
2022/05/21 04:45:37;;;;;;;0.43;0.20;;;;;;;35.33;22.43;97722.50;5055674;28;20041;-80
2022/05/21 04:48:04;;;;;;;0.98;0.25;;;;;;;35.43;22.55;97715.22;5038266;28;20044;-79
2022/05/21 04:50:30;;;;;;;0.45;0.13;;;;;;;35.56;22.49;97709.00;5055174;28;20477;-80
2022/05/21 04:52:57;;;;;;;0.75;0.20;;;;;;;35.40;22.40;97722.72;5032559;28;20045;-79
2022/05/21 04:55:23;;;;;;;1.17;0.25;;;;;;;35.09;22.71;97723.03;5053130;28;20041;-79
2022/05/21 04:57:49;;;;;;;1.85;0.20;;;;;;;34.94;22.77;97730.25;5050707;28;20045;-79
2022/05/21 05:00:16;;;;;;;1.23;0.30;;;;;;;34.90;23.23;97730.50;5048035;28;20057;-79
2022/05/21 05:02:42;;;;;;;0.40;0.20;;;;;;;34.95;23.14;97726.09;5054448;28;20056;-79
2022/05/21 05:05:09;;;;;;;1.83;0.30;;;;;;;34.83;23.06;97722.44;5049783;28;20037;-79
2022/05/21 05:07:37;;;;;;;0.20;0.20;;;;;;;34.69;23.20;97721.41;5048063;28;20429;-80
2022/05/21 05:10:04;;;;;;;0.38;0.30;;;;;;;34.93;23.33;97726.63;5047707;28;20037;-82
2022/05/21 05:12:31;;;;;;;0.95;0.25;;;;;;;34.96;23.16;97725.56;5047403;28;20029;-82
2022/05/21 05:14:58;;;;;;;0.45;0.38;;;;;;;34.89;23.04;97716.75;5044824;28;20485;-83
2022/05/21 05:17:24;;;;;;;0.50;0.30;;;;;;;35.10;22.92;97733.13;5047105;28;20036;-83
2022/05/21 05:19:54;;;;;;;2.08;1.15;;;;;;;34.97;23.36;97727.13;5041690;28;20500;-83
2022/05/21 05:22:23;;;;;;;1.20;0.60;;;;;;;34.91;23.25;97725.56;5043166;28;20044;-82
2022/05/21 05:24:49;;;;;;;0.85;0.30;;;;;;;35.02;22.78;97714.19;5045321;28;20033;-84
2022/05/21 05:27:17;;;;;;;0.63;0.22;;;;;;;35.01;23.69;97713.38;5045886;28;20036;-84
2022/05/21 05:29:43;;;;;;;0.30;0.30;;;;;;;35.05;23.53;97718.88;5045048;28;20053;-84
2022/05/21 05:32:09;;;;;;;0.30;0.30;;;;;;;34.85;24.19;97710.50;5043844;28;20079;-83
2022/05/21 05:34:35;;;;;;;1.20;0.30;;;;;;;34.53;24.29;97713.59;5042240;28;20069;-83
2022/05/21 05:37:02;;;;;;;0.77;0.30;;;;;;;34.04;24.77;97728.41;5045312;28;20404;-84
2022/05/21 05:39:29;;;;;;;1.80;0.47;;;;;;;34.03;25.53;97744.72;5038172;28;20030;-84
2022/05/21 05:41:55;;;;;;;1.48;0.50;;;;;;;33.82;26.07;97763.22;5041707;28;20045;-90
2022/05/21 05:44:21;;;;;;;1.55;0.63;;;;;;;33.71;26.87;97788.00;5038609;28;20393;-84
2022/05/21 05:46:48;;;;;;;0.82;0.40;;;;;;;33.46;27.05;97786.75;5046550;28;20032;-84
2022/05/21 05:49:14;;;;;;;0.93;0.40;;;;;;;32.72;28.24;97789.38;5047664;28;20041;-83
2022/05/21 05:51:40;;;;;;;0.73;0.52;;;;;;;32.19;29.40;97794.66;5044485;28;20396;-83
2022/05/21 05:54:06;;;;;;;0.52;0.40;;;;;;;30.59;31.56;97744.53;5046276;28;20025;-86
2022/05/21 05:56:32;;;;;;;1.00;0.68;;;;;;;29.64;35.13;97789.81;5047958;28;20073;-91
2022/05/21 06:01:44;;;;;;;1.40;0.50;;;;;;;30.25;34.05;97788.34;5041216;28;20056;-86
2022/05/21 06:04:10;;;;;;;1.98;0.40;;;;;;;30.89;32.45;97797.16;5048266;28;21002;-92
2022/05/21 06:06:37;;;;;;;2.88;0.70;;;;;;;30.99;33.09;97795.81;5046889;28;20083;-90
2022/05/21 06:09:03;;;;;;;2.40;0.40;;;;;;;31.39;32.79;97798.81;5049608;28;20094;-94
2022/05/21 06:11:37;;;;;;;1.48;0.40;;;;;;;31.34;31.95;97801.56;5034200;28;20496;-90
2022/05/21 06:14:04;;;;;;;0.60;0.35;;;;;;;31.82;32.19;97805.72;5042139;28;20082;-94
2022/05/21 06:16:30;;;;;;;1.30;0.40;;;;;;;31.85;31.33;97795.44;5040539;28;20492;-93
2022/05/21 06:18:56;;;;;;;0.77;0.30;;;;;;;32.08;31.36;97800.97;5048132;28;20057;-94
2022/05/21 06:21:22;;;;;;;1.10;0.47;;;;;;;32.32;31.06;97808.50;5058970;28;20029;-89
2022/05/21 06:23:48;;;;;;;0.43;0.40;;;;;;;31.86;31.89;97796.97;5051468;28;20025;-84
2022/05/21 06:26:14;;;;;;;1.42;0.50;;;;;;;31.51;32.10;97802.66;5053055;28;20029;-84
2022/05/21 06:28:40;;;;;;;1.73;0.47;;;;;;;32.27;31.79;97800.69;5050729;28;20040;-83
2022/05/21 06:31:06;;;;;;;2.33;0.50;;;;;;;32.48;30.79;97800.19;5054504;28;20027;-83
2022/05/21 06:33:32;;;;;;;3.22;0.47;;;;;;;32.43;31.77;97808.66;5044917;28;20072;-83
2022/05/21 06:36:17;;;;;;;3.80;0.75;;;;;;;32.60;31.65;97812.50;5055006;28;20036;-83
2022/05/21 06:38:44;;;;;;;5.00;0.70;;;;;;;32.58;31.25;97809.38;5049230;28;20052;-83
2022/05/21 06:41:11;;;;;;;1.67;1.10;;;;;;;32.44;32.08;97805.28;5030108;28;20560;-84
2022/05/21 06:43:37;;;;;;;1.20;1.10;;;;;;;32.57;31.88;97819.19;5040875;28;20036;-84
2022/05/21 06:46:12;;;;;;;1.58;0.80;;;;;;;33.27;31.10;97822.56;5047699;28;20037;-83
2022/05/21 06:48:39;;;;;;;6.38;1.58;;;;;;;33.30;31.20;97810.16;5048974;28;20085;-83
2022/05/21 06:51:06;;;;;;;2.45;1.08;;;;;;;33.26;31.91;97815.28;5049955;28;20033;-82
2022/05/21 06:53:35;;;;;;;3.53;1.20;;;;;;;33.39;30.79;97816.47;5049904;28;20052;-82
2022/05/21 06:56:13;;;;;;;1.80;1.33;;;;;;;33.38;30.61;97822.66;5047610;28;20029;-82
2022/05/21 06:58:39;;;;;;;1.95;1.23;;;;;;;33.63;30.92;97813.31;5042974;28;20536;-81
2022/05/21 07:01:05;;;;;;;3.78;1.35;;;;;;;33.22;31.27;97818.38;5033087;28;20029;-83
2022/05/21 07:03:32;;;;;;;3.78;2.20;;;;;;;32.91;31.39;97814.66;5049283;28;20041;-83
2022/05/21 07:08:44;;;;;;;3.63;1.63;;;;;;;32.26;32.35;97821.84;5045931;28;20047;-85
2022/05/21 07:11:10;;;;;;;4.03;2.10;;;;;;;32.56;32.43;97831.81;5045124;28;20033;-83
2022/05/21 07:13:39;;;;;;;4.90;2.10;;;;;;;32.55;32.66;97819.69;5040609;28;20049;-81
2022/05/21 07:16:06;;;;;;;5.90;2.42;;;;;;;32.16;32.28;97818.34;5039355;28;20059;-83
2022/05/21 07:18:32;;;;;;;2.60;1.85;;;;;;;32.71;31.56;97824.78;5041923;28;20044;-83
2022/05/21 07:20:59;;;;;;;4.88;2.00;;;;;;;32.62;31.62;97818.47;5040172;28;20467;-83
2022/05/21 07:23:27;;;;;;;5.03;2.00;;;;;;;32.45;32.70;97828.81;5039920;28;20048;-82
2022/05/21 07:25:55;;;;;;;7.22;3.28;;;;;;;32.76;31.45;97811.91;5040325;28;20035;-83
2022/05/21 07:28:21;;;;;;;4.03;2.35;;;;;;;32.69;31.87;97827.34;5048860;28;20077;-83
2022/05/21 07:30:48;;;;;;;3.22;2.85;;;;;;;32.69;31.57;97820.88;5046848;28;20029;-83
2022/05/21 07:33:17;;;;;;;4.55;2.25;;;;;;;32.44;32.25;97813.06;5052066;28;20075;-84
2022/05/21 07:35:45;;;;;;;6.35;2.38;;;;;;;32.32;32.09;97806.47;5050181;28;20041;-83
2022/05/21 07:38:13;;;;;;;10.52;2.47;;;;;;;32.36;32.14;97809.84;5049986;28;20113;-84
2022/05/21 07:40:40;;;;;;;4.10;2.05;;;;;;;31.35;31.81;97842.84;5045254;28;20124;-85
2022/05/21 07:43:18;;;;;;;1.73;1.60;;;;;;;30.18;33.26;97859.53;5049900;28;20061;-84
2022/05/21 07:45:46;;;;;;;6.25;1.55;;;;;;;30.21;32.83;97852.13;5048010;28;20025;-82
2022/05/21 07:48:15;;;;;;;5.43;1.63;;;;;;;30.80;31.03;97858.81;5045927;28;20021;-82
2022/05/21 07:50:46;;;;;;;2.15;1.55;;;;;;;30.20;32.87;97868.31;5044950;28;20057;-83
2022/05/21 07:53:15;;;;;;;1.52;1.42;;;;;;;30.91;31.49;97851.34;5046860;28;20029;-84
2022/05/21 07:55:48;;;;;;;4.00;1.38;;;;;;;31.83;30.35;97864.09;5026811;28;20049;-84
2022/05/21 07:58:14;;;;;;;6.28;1.23;;;;;;;31.36;30.59;97867.91;5043233;28;20083;-82
2022/05/21 08:00:41;;;;;;;4.25;1.20;;;;;;;30.05;31.11;97881.63;5032916;28;20087;-82
2022/05/21 08:03:10;;;;;;;1.30;1.20;;;;;;;29.76;31.67;97865.25;5048886;28;20052;-82
2022/05/21 08:05:41;;;;;;;3.40;1.17;;;;;;;29.81;31.65;97883.63;5047623;28;20043;-85
2022/05/21 08:08:09;;;;;;;0.93;0.80;;;;;;;31.70;29.03;97877.78;5047314;28;20505;-82
2022/05/21 08:10:37;;;;;;;0.82;0.80;;;;;;;32.25;28.40;97871.44;5045106;28;20068;-79
2022/05/21 08:13:03;;;;;;;4.22;1.00;;;;;;;32.34;27.98;97874.16;5046627;28;20440;-83
2022/05/21 08:15:30;;;;;;;4.60;1.05;;;;;;;31.96;27.53;97872.28;5052815;28;20048;-81
2022/05/21 08:17:56;;;;;;;1.10;0.60;;;;;;;32.44;27.87;97890.56;5043585;28;20502;-83
2022/05/21 08:20:23;;;;;;;1.75;0.85;;;;;;;32.04;26.67;97879.16;5048162;28;20049;-81
2022/05/21 08:28:18;;;;;;;6.32;0.70;;;;;;;29.97;27.45;97891.72;5054086;28;20051;-79
2022/05/21 08:30:46;;;;;;;3.33;0.50;;;;;;;30.99;26.11;97903.56;5044822;28;20029;-83
2022/05/21 08:33:14;;;;;;;1.27;0.50;;;;;;;30.84;25.03;97901.91;5045904;28;20047;-83
2022/05/21 08:35:41;;;;;;;1.05;0.47;;;;;;;30.48;26.13;97900.91;5054621;28;20112;-81
2022/05/21 08:38:09;;;;;;;8.45;0.52;;;;;;;31.19;24.76;97900.06;5046772;28;20033;-83
2022/05/21 08:41:19;;;;;;;1.05;0.82;;;;;;;31.43;25.55;97900.81;5054548;28;20044;-82
2022/05/21 08:44:06;;;;;;;1.95;0.30;;;;;;;30.60;25.36;97899.09;5048224;28;20057;-81
2022/05/21 08:46:37;;;;;;;2.95;0.40;;;;;;;31.28;25.12;97899.97;5036580;28;20060;-82
2022/05/21 08:49:30;;;;;;;1.17;0.50;;;;;;;30.57;24.91;97892.34;5047626;28;20037;-82
2022/05/21 08:52:01;;;;;;;2.05;0.30;;;;;;;30.47;24.93;97898.56;5062911;28;20388;-78
2022/05/21 08:54:50;;;;;;;3.80;0.40;;;;;;;30.60;24.71;97911.22;5046456;28;20525;-78
2022/05/21 08:57:36;;;;;;;1.83;0.40;;;;;;;29.28;26.93;97918.03;5049078;28;20171;-78
2022/05/21 09:00:16;;;;;;;0.85;0.35;;;;;;;30.04;24.90;97916.88;5044776;28;20047;-78
2022/05/21 09:02:42;;;;;;;4.40;0.38;;;;;;;29.26;25.32;97922.59;5029048;28;20025;-82
2022/05/21 09:05:12;;;;;;;4.22;0.32;;;;;;;29.75;24.76;97916.66;5052600;28;20056;-81
2022/05/21 09:08:04;;;;;;;6.60;0.40;;;;;;;29.39;25.19;97923.97;5049424;28;20062;-81
2022/05/21 09:10:43;;;;;;;3.92;0.40;;;;;;;29.72;24.31;97928.91;5037356;28;20049;-81
2022/05/21 09:13:38;;;;;;;6.63;0.40;;;;;;;30.91;23.35;97912.94;5045856;28;20139;-78
2022/05/21 09:18:50;;;;;;;1.65;0.43;;;;;;;30.48;23.07;97925.66;5056096;28;20432;-80
2022/05/21 09:21:21;;;;;;;3.40;0.38;;;;;;;30.47;22.88;97913.53;5047223;28;20025;-78
2022/05/21 09:23:51;;;;;;;4.47;0.32;;;;;;;30.21;23.13;97915.22;5048630;28;20035;-80
2022/05/21 09:26:20;;;;;;;1.35;0.30;;;;;;;31.23;21.74;97929.03;5047703;28;20025;-80
2022/05/21 09:28:48;;;;;;;0.98;0.20;;;;;;;30.46;22.12;97928.94;5030114;28;20045;-81
2022/05/21 09:31:27;;;;;;;2.85;0.50;;;;;;;30.93;22.19;97933.84;5063781;28;20025;-81
2022/05/21 09:33:55;;;;;;;2.28;0.20;;;;;;;29.39;23.96;97935.28;5046162;28;20112;-80
2022/05/21 09:36:34;;;;;;;4.28;0.35;;;;;;;29.65;23.43;97954.72;5047169;28;20040;-81
2022/05/21 09:39:00;;;;;;;3.05;0.20;;;;;;;30.08;23.00;97932.41;5050086;28;20047;-81
2022/05/21 09:41:28;;;;;;;2.03;0.30;;;;;;;31.01;22.68;97934.28;5048863;28;20057;-80
2022/05/21 09:46:45;;;;;;;1.23;0.20;;;;;;;31.04;21.63;97942.59;5051597;28;20052;-81
2022/05/21 09:49:18;;;;;;;4.68;0.95;;;;;;;30.43;22.81;97951.81;5041353;28;20036;-82
2022/05/21 09:51:56;;;;;;;2.97;0.20;;;;;;;29.42;23.72;97956.19;5045084;28;20039;-82
2022/05/21 09:54:26;;;;;;;4.70;0.40;;;;;;;30.16;22.59;97943.41;5025473;28;20477;-83
2022/05/21 09:56:55;;;;;;;4.60;0.35;;;;;;;29.60;23.41;97941.22;5031166;28;20057;-81
2022/05/21 09:59:29;;;;;;;6.78;0.90;;;;;;;30.06;23.18;97946.28;5049026;28;20033;-80
2022/05/21 10:02:01;;;;;;;3.85;0.50;;;;;;;30.84;22.33;97955.78;5047219;28;20473;-80
2022/05/21 10:05:00;;;;;;;1.20;0.20;;;;;;;30.68;22.44;97963.47;5044279;28;20481;-79
2022/05/21 10:13:20;;;;;;;4.80;0.20;;;;;;;31.62;22.27;97939.09;5059475;28;20047;-81
2022/05/21 10:16:10;;;;;;;0.28;0.20;;;;;;;32.41;20.03;97920.00;5047934;28;20033;-82
2022/05/21 10:18:52;;;;;;;2.17;0.50;;;;;;;31.91;20.75;97935.44;5046599;28;20041;-84
2022/05/21 10:21:21;;;;;;;3.22;0.38;;;;;;;32.18;20.92;97929.47;5042399;28;20279;-81
2022/05/21 10:23:54;;;;;;;3.20;0.35;;;;;;;32.36;20.65;97934.13;5043568;28;20040;-81
2022/05/21 10:26:39;;;;;;;1.58;0.32;;;;;;;31.75;21.33;97947.31;5047183;28;20029;-80
2022/05/21 10:29:44;;;;;;;2.05;0.40;;;;;;;31.96;20.22;97946.94;5054824;28;20061;-80
2022/05/21 10:32:35;;;;;;;1.05;0.20;;;;;;;31.47;21.10;97935.47;5054437;28;20041;-81
2022/05/21 10:35:29;;;;;;;2.97;0.85;;;;;;;31.27;21.16;97929.66;5039035;28;20033;-80
2022/05/21 10:38:16;;;;;;;1.05;0.50;;;;;;;31.31;22.12;97941.56;5048800;28;20072;-81
2022/05/21 10:41:15;;;;;;;0.82;0.20;;;;;;;31.97;21.33;97968.38;5043729;28;20055;-80
2022/05/21 10:43:53;;;;;;;2.58;0.45;;;;;;;32.14;21.37;97940.25;5016138;28;20095;-81
2022/05/21 10:46:38;;;;;;;1.45;0.30;;;;;;;31.63;21.40;97946.31;5049811;28;20067;-79
2022/05/21 10:49:28;;;;;;;1.77;0.50;;;;;;;31.15;21.96;97953.38;5047391;28;20481;-81
2022/05/21 10:52:04;;;;;;;2.33;0.30;;;;;;;30.91;20.65;97930.72;5043180;28;20029;-83
2022/05/21 10:54:36;;;;;;;1.10;0.30;;;;;;;30.49;22.11;97939.34;5041013;28;20483;-82
2022/05/21 10:57:05;;;;;;;2.25;0.30;;;;;;;31.84;20.39;97956.50;5044026;28;20048;-82
2022/05/21 10:59:42;;;;;;;0.90;0.35;;;;;;;32.06;20.28;97947.63;5058994;28;20056;-82
2022/05/21 11:02:33;;;;;;;1.20;0.30;;;;;;;31.66;21.13;97947.41;5048231;28;20436;-83
2022/05/21 11:05:26;;;;;;;3.13;0.30;;;;;;;31.53;21.01;97949.75;5052490;28;20037;-82
2022/05/21 11:07:59;;;;;;;4.70;1.25;;;;;;;31.37;21.11;97945.28;5054494;28;20033;-82
2022/05/21 11:10:43;;;;;;;0.38;0.20;;;;;;;31.89;21.69;97955.03;5049076;28;20037;-83
2022/05/21 11:13:33;;;;;;;1.15;0.35;;;;;;;31.02;20.86;97936.63;5044109;28;20115;-83
2022/05/21 11:16:12;;;;;;;1.08;0.20;;;;;;;30.68;21.76;97946.47;5039375;28;20048;-81
2022/05/21 11:18:44;;;;;;;1.58;0.28;;;;;;;31.38;20.77;97944.03;5050024;28;20086;-81
2022/05/21 11:21:39;;;;;;;2.47;0.32;;;;;;;31.68;20.62;97953.38;5047984;28;20041;-81
2022/05/21 11:24:19;;;;;;;1.17;0.30;;;;;;;32.43;20.42;97939.38;5039772;28;20108;-82
2022/05/21 11:27:14;;;;;;;2.00;0.20;;;;;;;32.89;20.36;97942.38;5045698;28;20132;-80
2022/05/21 11:30:06;;;;;;;1.35;0.30;;;;;;;32.84;19.02;97937.41;5042109;28;20040;-84
2022/05/21 11:38:44;;;;;;;4.28;0.30;;;;;;;31.93;19.69;97956.41;5040374;28;20405;-83
2022/05/21 11:41:28;;;;;;;0.77;0.30;;;;;;;32.23;20.18;97950.72;5044694;28;20155;-82
2022/05/21 11:46:49;;;;;;;0.70;0.30;;;;;;;32.39;19.82;97942.44;5046822;28;20083;-82
2022/05/21 11:49:27;;;;;;;3.63;0.20;;;;;;;33.08;18.88;97952.22;5057091;28;20021;-82
2022/05/21 11:51:59;;;;;;;1.15;0.28;;;;;;;32.30;19.21;97941.78;5044752;28;20036;-81
2022/05/21 11:54:47;;;;;;;0.63;0.32;;;;;;;32.72;18.98;97933.63;5058215;28;20033;-84
2022/05/21 11:57:37;;;;;;;2.42;0.15;;;;;;;32.81;19.37;97944.09;5060109;28;20035;-83
2022/05/21 12:00:08;;;;;;;0.93;0.22;;;;;;;33.42;19.06;97937.09;5045316;28;20037;-81
2022/05/21 12:02:38;;;;;;;0.93;0.17;;;;;;;32.42;19.06;97932.91;5042165;28;20033;-82
2022/05/21 12:05:09;;;;;;;1.88;0.30;;;;;;;32.12;19.50;97911.53;5056822;28;20060;-81
2022/05/21 12:07:43;;;;;;;3.25;0.20;;;;;;;32.28;19.60;97947.19;5048925;28;20091;-84
2022/05/21 12:10:17;;;;;;;2.67;0.25;;;;;;;32.97;18.38;97947.16;5059482;28;20049;-82
2022/05/21 12:13:12;;;;;;;0.95;0.63;;;;;;;32.87;18.65;97954.25;5058131;28;20505;-84
2022/05/21 12:15:46;;;;;;;0.63;0.40;;;;;;;32.79;18.25;97950.28;5050967;28;20037;-81
2022/05/21 12:18:36;;;;;;;0.95;0.68;;;;;;;33.02;18.20;97954.22;5047119;28;20492;-85
2022/05/21 12:21:05;;;;;;;0.85;0.20;;;;;;;32.14;18.92;97940.25;5059325;28;20024;-84
2022/05/21 12:23:31;;;;;;;3.55;0.15;;;;;;;32.67;18.64;97962.78;5057304;28;20169;-82
2022/05/21 12:26:22;;;;;;;0.10;0.10;;;;;;;34.08;18.38;97965.47;5050426;28;20369;-82
2022/05/21 12:29:10;;;;;;;0.20;0.13;;;;;;;33.59;17.66;97954.34;5043824;28;20055;-81
2022/05/21 12:31:56;;;;;;;1.00;0.20;;;;;;;33.78;17.55;97950.66;5055718;28;20048;-81
2022/05/21 12:35:01;;;;;;;0.63;0.10;;;;;;;34.18;16.74;97960.34;5057887;28;20078;-82
2022/05/21 12:37:44;;;;;;;0.15;0.15;;;;;;;33.02;17.91;97968.44;5058008;28;20366;-81
2022/05/21 12:40:23;;;;;;;1.30;0.20;;;;;;;33.84;17.91;97959.28;5054823;28;20036;-82